WAT7471 SLLP-SOCA
Flight info
| Callsign | WAT7471 |
|---|---|
| Flight time | 4h 2m |
| Altitude | 39000 |
| Route | BOKAP DCT SILIC DCT DIKAL DCT AROPI DCT MINUG DCT ERVEL DCT OPTUS UL306 DIMAS DCT DABRA DABRA1U |
| Aircraft | CL60/M-SBDE1E2E3FGHIJ1J4J5J7M3RWXYZ/LB1V1D1 |
Departure
| Time | 2026-04-24 12:00 |
|---|---|
| Airport | El Alto International Airport (SLLP) |
Arrival
| Time | 2026-04-24 16:02 |
|---|---|
| Airport | Cayenne – Félix Eboué Airport (SOCA) |
| Time | Latitude | Longitude | Altitude | Speed | Heading |
|---|---|---|---|---|---|
| 2026-04-24 11:26 | -16.50929 | -68.18072 | 13342 ft | 0 kts | 3° |
| 2026-04-24 11:52 | -16.50927 | -68.18071 | 13342 ft | 0 kts | 14° |
| 2026-04-24 11:53 | -16.50921 | -68.18063 | 13343 ft | 2 kts | 93° |
| 2026-04-24 11:53 | -16.50955 | -68.18052 | 13343 ft | 8 kts | 173° |
| 2026-04-24 11:53 | -16.50999 | -68.17994 | 13344 ft | 13 kts | 81° |
| 2026-04-24 11:53 | -16.51015 | -68.17925 | 13348 ft | 10 kts | 160° |
| 2026-04-24 11:54 | -16.51097 | -68.17987 | 13343 ft | 20 kts | 226° |
| 2026-04-24 11:54 | -16.51205 | -68.18105 | 13333 ft | 24 kts | 227° |
| 2026-04-24 11:54 | -16.51292 | -68.18217 | 13325 ft | 24 kts | 238° |
| 2026-04-24 11:54 | -16.51356 | -68.18400 | 13312 ft | 31 kts | 263° |
| 2026-04-24 11:55 | -16.51354 | -68.18662 | 13297 ft | 41 kts | 271° |
| 2026-04-24 11:55 | -16.51345 | -68.18972 | 13280 ft | 44 kts | 271° |
| 2026-04-24 11:55 | -16.51335 | -68.19310 | 13264 ft | 31 kts | 272° |
| 2026-04-24 11:55 | -16.51326 | -68.19567 | 13252 ft | 36 kts | 272° |
| 2026-04-24 11:56 | -16.51318 | -68.19814 | 13241 ft | 30 kts | 272° |
| 2026-04-24 11:56 | -16.51311 | -68.20064 | 13229 ft | 29 kts | 272° |
| 2026-04-24 11:56 | -16.51306 | -68.20270 | 13218 ft | 33 kts | 271° |
| 2026-04-24 11:56 | -16.51295 | -68.20539 | 13204 ft | 29 kts | 272° |
| 2026-04-24 11:57 | -16.51288 | -68.20748 | 13193 ft | 25 kts | 271° |
| 2026-04-24 11:57 | -16.51281 | -68.20951 | 13184 ft | 26 kts | 272° |
| 2026-04-24 11:57 | -16.51252 | -68.21059 | 13180 ft | 11 kts | 274° |
| 2026-04-24 11:57 | -16.51278 | -68.21064 | 13179 ft | 4 kts | 90° |
| 2026-04-24 11:58 | -16.51278 | -68.21060 | 13180 ft | 0 kts | 91° |
| 2026-04-24 11:59 | -16.51286 | -68.20805 | 13191 ft | 72 kts | 92° |
| 2026-04-24 11:59 | -16.51309 | -68.20054 | 13229 ft | 132 kts | 92° |
| 2026-04-24 11:59 | -16.51345 | -68.18913 | 13283 ft | 178 kts | 91° |
| 2026-04-24 11:59 | -16.51413 | -68.17558 | 13643 ft | 194 kts | 95° |
| 2026-04-24 12:00 | -16.51495 | -68.16151 | 14309 ft | 198 kts | 93° |
| 2026-04-24 12:00 | -16.51523 | -68.14714 | 14963 ft | 207 kts | 90° |
| 2026-04-24 12:00 | -16.51751 | -68.13173 | 15449 ft | 227 kts | 117° |
| 2026-04-24 12:00 | -16.52893 | -68.11996 | 16061 ft | 241 kts | 157° |
| 2026-04-24 12:01 | -16.54563 | -68.11812 | 16736 ft | 251 kts | 194° |
| 2026-04-24 12:01 | -16.56069 | -68.12746 | 17447 ft | 257 kts | 232° |
| 2026-04-24 12:01 | -16.56767 | -68.14443 | 18172 ft | 259 kts | 266° |
| 2026-04-24 12:01 | -16.56813 | -68.16301 | 18826 ft | 262 kts | 270° |
| 2026-04-24 12:02 | -16.56834 | -68.18239 | 19347 ft | 271 kts | 270° |
| 2026-04-24 12:02 | -16.56861 | -68.20220 | 19846 ft | 280 kts | 270° |
| 2026-04-24 12:02 | -16.56889 | -68.22363 | 19888 ft | 311 kts | 270° |
| 2026-04-24 12:02 | -16.56920 | -68.24715 | 19894 ft | 341 kts | 270° |
| 2026-04-24 12:03 | -16.56954 | -68.27315 | 19895 ft | 369 kts | 270° |
| 2026-04-24 12:03 | -16.56994 | -68.30024 | 20127 ft | 386 kts | 269° |
| 2026-04-24 12:03 | -16.57406 | -68.32828 | 20603 ft | 394 kts | 252° |
| 2026-04-24 12:03 | -16.58565 | -68.35443 | 21135 ft | 398 kts | 241° |
| 2026-04-24 12:04 | -16.59777 | -68.38081 | 21693 ft | 402 kts | 252° |
| 2026-04-24 12:04 | -16.60272 | -68.40927 | 22217 ft | 404 kts | 269° |
| 2026-04-24 12:04 | -16.59944 | -68.43813 | 22731 ft | 405 kts | 287° |
| 2026-04-24 12:04 | -16.58804 | -68.46478 | 23255 ft | 404 kts | 304° |
| 2026-04-24 12:05 | -16.57086 | -68.48807 | 23792 ft | 406 kts | 311° |
| 2026-04-24 12:05 | -16.55298 | -68.51076 | 24396 ft | 409 kts | 310° |
| 2026-04-24 12:05 | -16.53494 | -68.53374 | 24982 ft | 413 kts | 310° |
| 2026-04-24 12:05 | -16.51652 | -68.55721 | 25553 ft | 416 kts | 310° |
| 2026-04-24 12:06 | -16.49838 | -68.58032 | 26101 ft | 419 kts | 310° |
| 2026-04-24 12:06 | -16.47977 | -68.60402 | 26628 ft | 422 kts | 310° |
| 2026-04-24 12:06 | -16.46116 | -68.62771 | 27139 ft | 425 kts | 310° |
| 2026-04-24 12:06 | -16.44233 | -68.65169 | 27634 ft | 429 kts | 310° |
| 2026-04-24 12:07 | -16.42321 | -68.67602 | 28113 ft | 432 kts | 310° |
| 2026-04-24 12:07 | -16.40379 | -68.70072 | 28591 ft | 435 kts | 310° |
| 2026-04-24 12:07 | -16.38436 | -68.72545 | 29046 ft | 438 kts | 310° |
| 2026-04-24 12:07 | -16.36507 | -68.74997 | 29500 ft | 441 kts | 310° |
| 2026-04-24 12:08 | -16.34551 | -68.77483 | 29961 ft | 443 kts | 310° |
| 2026-04-24 12:08 | -16.32576 | -68.79993 | 30404 ft | 445 kts | 310° |
| 2026-04-24 12:08 | -16.30625 | -68.82471 | 30812 ft | 447 kts | 310° |
| 2026-04-24 12:08 | -16.28630 | -68.85004 | 31198 ft | 450 kts | 310° |
| 2026-04-24 12:09 | -16.26646 | -68.87523 | 31570 ft | 452 kts | 310° |
| 2026-04-24 12:09 | -16.24662 | -68.90041 | 31929 ft | 454 kts | 310° |
| 2026-04-24 12:09 | -16.22634 | -68.92613 | 32286 ft | 456 kts | 310° |
| 2026-04-24 12:09 | -16.20624 | -68.95161 | 32613 ft | 458 kts | 310° |
| 2026-04-24 12:10 | -16.18606 | -68.97720 | 32919 ft | 461 kts | 310° |
| 2026-04-24 12:10 | -16.16562 | -69.00310 | 33265 ft | 462 kts | 310° |
| 2026-04-24 12:10 | -16.14530 | -69.02884 | 33606 ft | 463 kts | 310° |
| 2026-04-24 12:11 | -16.10450 | -69.08049 | 34269 ft | 464 kts | 310° |
| 2026-04-24 12:11 | -16.08399 | -69.10645 | 34570 ft | 464 kts | 310° |
| 2026-04-24 12:11 | -16.06343 | -69.13245 | 34918 ft | 463 kts | 310° |
| 2026-04-24 12:11 | -16.04287 | -69.15829 | 35294 ft | 461 kts | 311° |
| 2026-04-24 12:12 | -16.02037 | -69.18185 | 35698 ft | 457 kts | 320° |
| 2026-04-24 12:12 | -15.99511 | -69.20113 | 36071 ft | 453 kts | 329° |
| 2026-04-24 12:12 | -15.96696 | -69.21629 | 36399 ft | 450 kts | 338° |
| 2026-04-24 12:12 | -15.93721 | -69.22664 | 36648 ft | 450 kts | 347° |
| 2026-04-24 12:13 | -15.90638 | -69.23202 | 36911 ft | 448 kts | 355° |
| 2026-04-24 12:13 | -15.87495 | -69.23232 | 37183 ft | 447 kts | 4° |
| 2026-04-24 12:13 | -15.84452 | -69.22765 | 37411 ft | 447 kts | 13° |
| 2026-04-24 12:13 | -15.81458 | -69.21788 | 37649 ft | 447 kts | 22° |
| 2026-04-24 12:14 | -15.78701 | -69.20357 | 37886 ft | 447 kts | 30° |
| 2026-04-24 12:14 | -15.76106 | -69.18552 | 38115 ft | 447 kts | 34° |
| 2026-04-24 12:14 | -15.73542 | -69.16689 | 38358 ft | 446 kts | 34° |
| 2026-04-24 12:14 | -15.71008 | -69.14856 | 38594 ft | 445 kts | 34° |
| 2026-04-24 12:15 | -15.68443 | -69.13002 | 38811 ft | 445 kts | 33° |
| 2026-04-24 12:15 | -15.65917 | -69.11178 | 38999 ft | 445 kts | 34° |
| 2026-04-24 12:15 | -15.63379 | -69.09347 | 39191 ft | 444 kts | 34° |
| 2026-04-24 12:15 | -15.60858 | -69.07528 | 39370 ft | 444 kts | 34° |
| 2026-04-24 12:16 | -15.58322 | -69.05700 | 39530 ft | 444 kts | 34° |
| 2026-04-24 12:16 | -15.55764 | -69.03857 | 39677 ft | 444 kts | 34° |
| 2026-04-24 12:16 | -15.53215 | -69.02023 | 39835 ft | 444 kts | 34° |
| 2026-04-24 12:17 | -15.48158 | -68.98384 | 39912 ft | 446 kts | 34° |
| 2026-04-24 12:17 | -15.43040 | -68.94706 | 39888 ft | 447 kts | 34° |
| 2026-04-24 12:18 | -15.37913 | -68.91024 | 39884 ft | 446 kts | 34° |
| 2026-04-24 12:18 | -15.32819 | -68.87368 | 39913 ft | 444 kts | 34° |
| 2026-04-24 12:19 | -15.27731 | -68.83720 | 39907 ft | 444 kts | 34° |
| 2026-04-24 12:19 | -15.22646 | -68.80076 | 39876 ft | 445 kts | 34° |
| 2026-04-24 12:20 | -15.17562 | -68.76435 | 39872 ft | 445 kts | 34° |
| 2026-04-24 12:20 | -15.12433 | -68.72765 | 39824 ft | 445 kts | 34° |
| 2026-04-24 12:21 | -15.07330 | -68.69115 | 39751 ft | 446 kts | 34° |
| 2026-04-24 12:21 | -15.02227 | -68.65468 | 39790 ft | 445 kts | 34° |
| 2026-04-24 12:22 | -14.97122 | -68.61821 | 39722 ft | 446 kts | 34° |
| 2026-04-24 12:22 | -14.91994 | -68.58160 | 39653 ft | 445 kts | 34° |
| 2026-04-24 12:23 | -14.86880 | -68.54512 | 39681 ft | 445 kts | 34° |
| 2026-04-24 12:23 | -14.81765 | -68.50865 | 39566 ft | 447 kts | 34° |
| 2026-04-24 12:24 | -14.76631 | -68.47207 | 39565 ft | 446 kts | 34° |
| 2026-04-24 12:24 | -14.71534 | -68.43577 | 39454 ft | 447 kts | 34° |
| 2026-04-24 12:25 | -14.66425 | -68.39941 | 39470 ft | 445 kts | 34° |
| 2026-04-24 12:25 | -14.61312 | -68.36304 | 39387 ft | 447 kts | 34° |
| 2026-04-24 12:26 | -14.56173 | -68.32651 | 39359 ft | 446 kts | 34° |
| 2026-04-24 12:26 | -14.51042 | -68.29005 | 39312 ft | 446 kts | 34° |
| 2026-04-24 12:27 | -14.45913 | -68.25364 | 39292 ft | 446 kts | 34° |
| 2026-04-24 12:27 | -14.40787 | -68.21726 | 39243 ft | 447 kts | 34° |
| 2026-04-24 12:28 | -14.35656 | -68.18087 | 39222 ft | 447 kts | 34° |
| 2026-04-24 12:28 | -14.30558 | -68.14474 | 39228 ft | 445 kts | 34° |
| 2026-04-24 12:29 | -14.25501 | -68.10696 | 39166 ft | 446 kts | 40° |
| 2026-04-24 12:29 | -14.20829 | -68.06458 | 39142 ft | 446 kts | 41° |
| 2026-04-24 12:30 | -14.16180 | -68.02232 | 39112 ft | 447 kts | 41° |
| 2026-04-24 12:30 | -14.11527 | -67.98011 | 39095 ft | 446 kts | 41° |
| 2026-04-24 12:31 | -14.06880 | -67.93800 | 39070 ft | 445 kts | 41° |
| 2026-04-24 12:31 | -14.02213 | -67.89576 | 39030 ft | 446 kts | 41° |
| 2026-04-24 12:32 | -13.97542 | -67.85352 | 39019 ft | 445 kts | 41° |
| 2026-04-24 12:32 | -13.92907 | -67.81166 | 39024 ft | 445 kts | 41° |
| 2026-04-24 12:33 | -13.88242 | -67.76955 | 39023 ft | 445 kts | 41° |
| 2026-04-24 12:33 | -13.83541 | -67.72715 | 39024 ft | 445 kts | 41° |
| 2026-04-24 12:34 | -13.78883 | -67.68517 | 39021 ft | 444 kts | 41° |
| 2026-04-24 12:34 | -13.74243 | -67.64339 | 39023 ft | 444 kts | 41° |
| 2026-04-24 12:35 | -13.69585 | -67.60145 | 39022 ft | 444 kts | 41° |
| 2026-04-24 12:35 | -13.64949 | -67.55975 | 39021 ft | 444 kts | 41° |
| 2026-04-24 12:36 | -13.60283 | -67.51780 | 39019 ft | 444 kts | 41° |
| 2026-04-24 12:36 | -13.55647 | -67.47614 | 39021 ft | 444 kts | 41° |
| 2026-04-24 12:37 | -13.50982 | -67.43425 | 39018 ft | 443 kts | 41° |
| 2026-04-24 12:37 | -13.46356 | -67.39274 | 39018 ft | 442 kts | 41° |
| 2026-04-24 12:38 | -13.41693 | -67.35090 | 39016 ft | 443 kts | 41° |
| 2026-04-24 12:38 | -13.37046 | -67.30925 | 39016 ft | 443 kts | 41° |
| 2026-04-24 12:39 | -13.27753 | -67.22600 | 39014 ft | 443 kts | 41° |
| 2026-04-24 12:40 | -13.23089 | -67.18425 | 39011 ft | 443 kts | 41° |
| 2026-04-24 12:40 | -13.18459 | -67.14284 | 39012 ft | 443 kts | 41° |
| 2026-04-24 12:41 | -13.13826 | -67.10142 | 39011 ft | 443 kts | 41° |
| 2026-04-24 12:41 | -13.09171 | -67.05982 | 39012 ft | 442 kts | 41° |
| 2026-04-24 12:42 | -13.04546 | -67.01852 | 39011 ft | 442 kts | 41° |
| 2026-04-24 12:42 | -12.99896 | -66.97701 | 39010 ft | 442 kts | 41° |
| 2026-04-24 12:43 | -12.95243 | -66.93550 | 39009 ft | 442 kts | 41° |
| 2026-04-24 12:43 | -12.90607 | -66.89417 | 39013 ft | 442 kts | 41° |
| 2026-04-24 12:44 | -12.85943 | -66.85260 | 39012 ft | 443 kts | 41° |
| 2026-04-24 12:44 | -12.81282 | -66.81107 | 39012 ft | 443 kts | 41° |
| 2026-04-24 12:45 | -12.76648 | -66.76982 | 39012 ft | 442 kts | 41° |
| 2026-04-24 12:45 | -12.71995 | -66.72841 | 39012 ft | 442 kts | 41° |
| 2026-04-24 12:46 | -12.67350 | -66.68710 | 39012 ft | 442 kts | 41° |
| 2026-04-24 12:46 | -12.62732 | -66.64604 | 39014 ft | 442 kts | 41° |
| 2026-04-24 12:47 | -12.58075 | -66.60465 | 39014 ft | 442 kts | 41° |
| 2026-04-24 12:47 | -12.53426 | -66.56336 | 39012 ft | 442 kts | 41° |
| 2026-04-24 12:48 | -12.48765 | -66.52200 | 39013 ft | 442 kts | 41° |
| 2026-04-24 12:48 | -12.44146 | -66.48102 | 39013 ft | 442 kts | 41° |
| 2026-04-24 12:49 | -12.39480 | -66.43964 | 39011 ft | 442 kts | 41° |
| 2026-04-24 12:49 | -12.34827 | -66.39839 | 39014 ft | 442 kts | 41° |
| 2026-04-24 12:50 | -12.30194 | -66.35735 | 39014 ft | 442 kts | 42° |
| 2026-04-24 12:50 | -12.25520 | -66.31596 | 39009 ft | 442 kts | 41° |
| 2026-04-24 12:51 | -12.20848 | -66.27461 | 39006 ft | 442 kts | 42° |
| 2026-04-24 12:51 | -12.16208 | -66.23357 | 38998 ft | 442 kts | 42° |
| 2026-04-24 12:52 | -12.11570 | -66.19256 | 38993 ft | 442 kts | 42° |
| 2026-04-24 12:52 | -12.06901 | -66.15128 | 38996 ft | 443 kts | 42° |
| 2026-04-24 12:53 | -12.02252 | -66.11022 | 38991 ft | 443 kts | 42° |
| 2026-04-24 12:53 | -11.97576 | -66.06893 | 38989 ft | 443 kts | 42° |
| 2026-04-24 12:54 | -11.92893 | -66.02760 | 38991 ft | 443 kts | 42° |
| 2026-04-24 12:54 | -11.88228 | -65.98645 | 38989 ft | 443 kts | 42° |
| 2026-04-24 12:55 | -11.83551 | -65.94521 | 38988 ft | 444 kts | 42° |
| 2026-04-24 12:55 | -11.78857 | -65.90384 | 38990 ft | 445 kts | 42° |
| 2026-04-24 12:56 | -11.74166 | -65.86251 | 38991 ft | 445 kts | 42° |
| 2026-04-24 12:56 | -11.69489 | -65.82134 | 38988 ft | 445 kts | 42° |
| 2026-04-24 12:57 | -11.64794 | -65.78001 | 38990 ft | 445 kts | 42° |
| 2026-04-24 12:57 | -11.60091 | -65.73864 | 38987 ft | 445 kts | 42° |
| 2026-04-24 12:58 | -11.55406 | -65.69744 | 38989 ft | 445 kts | 42° |
| 2026-04-24 12:58 | -11.50690 | -65.65599 | 38990 ft | 445 kts | 42° |
| 2026-04-24 12:59 | -11.45994 | -65.61474 | 38992 ft | 446 kts | 42° |
| 2026-04-24 12:59 | -11.41301 | -65.57352 | 38992 ft | 446 kts | 42° |
| 2026-04-24 13:00 | -11.36584 | -65.53212 | 38992 ft | 447 kts | 42° |
| 2026-04-24 13:00 | -11.31870 | -65.49076 | 38995 ft | 447 kts | 42° |
| 2026-04-24 13:01 | -11.27145 | -65.44933 | 38995 ft | 447 kts | 42° |
| 2026-04-24 13:01 | -11.22415 | -65.40786 | 38994 ft | 446 kts | 42° |
| 2026-04-24 13:02 | -11.17732 | -65.36633 | 38989 ft | 446 kts | 45° |
| 2026-04-24 13:02 | -11.13550 | -65.31945 | 38985 ft | 447 kts | 49° |
| 2026-04-24 13:03 | -11.09434 | -65.27227 | 38987 ft | 447 kts | 49° |
| 2026-04-24 13:03 | -11.05294 | -65.22488 | 38988 ft | 447 kts | 49° |
| 2026-04-24 13:04 | -11.01171 | -65.17772 | 38991 ft | 447 kts | 50° |
| 2026-04-24 13:04 | -10.97036 | -65.13047 | 38996 ft | 447 kts | 50° |
| 2026-04-24 13:05 | -10.92902 | -65.08327 | 38996 ft | 447 kts | 49° |
| 2026-04-24 13:05 | -10.88741 | -65.03578 | 38999 ft | 447 kts | 50° |
| 2026-04-24 13:06 | -10.84578 | -64.98830 | 38999 ft | 448 kts | 50° |
| 2026-04-24 13:06 | -10.80425 | -64.94096 | 38997 ft | 448 kts | 50° |
| 2026-04-24 13:07 | -10.76290 | -64.89386 | 38994 ft | 447 kts | 49° |
| 2026-04-24 13:07 | -10.72152 | -64.84674 | 38992 ft | 446 kts | 49° |
| 2026-04-24 13:08 | -10.68022 | -64.79973 | 38996 ft | 446 kts | 50° |
| 2026-04-24 13:08 | -10.63864 | -64.75243 | 38993 ft | 446 kts | 50° |
| 2026-04-24 13:09 | -10.57649 | -64.68176 | 38995 ft | 447 kts | 50° |
| 2026-04-24 13:09 | -10.53525 | -64.63490 | 38993 ft | 447 kts | 50° |
| 2026-04-24 13:10 | -10.49358 | -64.58757 | 38990 ft | 446 kts | 50° |
| 2026-04-24 13:10 | -10.45202 | -64.54039 | 38990 ft | 449 kts | 49° |
| 2026-04-24 13:11 | -10.40989 | -64.49257 | 38995 ft | 455 kts | 50° |
| 2026-04-24 13:11 | -10.36770 | -64.44471 | 38988 ft | 459 kts | 50° |
| 2026-04-24 13:12 | -10.32501 | -64.39630 | 38993 ft | 460 kts | 50° |
| 2026-04-24 13:12 | -10.28223 | -64.34781 | 38986 ft | 459 kts | 49° |
| 2026-04-24 13:13 | -10.23950 | -64.29941 | 38984 ft | 458 kts | 49° |
| 2026-04-24 13:13 | -10.19684 | -64.25110 | 38985 ft | 458 kts | 49° |
| 2026-04-24 13:14 | -10.15426 | -64.20290 | 38985 ft | 458 kts | 49° |
| 2026-04-24 13:14 | -10.11183 | -64.15488 | 38986 ft | 458 kts | 49° |
| 2026-04-24 13:15 | -10.06895 | -64.10639 | 38991 ft | 458 kts | 49° |
| 2026-04-24 13:15 | -10.02646 | -64.05836 | 38990 ft | 458 kts | 49° |
| 2026-04-24 13:16 | -9.98381 | -64.01015 | 38992 ft | 458 kts | 49° |
| 2026-04-24 13:16 | -9.94128 | -63.96211 | 38992 ft | 459 kts | 49° |
| 2026-04-24 13:17 | -9.89862 | -63.91394 | 38990 ft | 459 kts | 49° |
| 2026-04-24 13:17 | -9.85594 | -63.86576 | 38992 ft | 459 kts | 49° |
| 2026-04-24 13:18 | -9.81328 | -63.81763 | 38990 ft | 458 kts | 49° |
| 2026-04-24 13:18 | -9.77058 | -63.76948 | 38995 ft | 458 kts | 49° |
| 2026-04-24 13:19 | -9.72805 | -63.72154 | 38992 ft | 458 kts | 49° |
| 2026-04-24 13:19 | -9.68553 | -63.67361 | 38987 ft | 458 kts | 49° |
| 2026-04-24 13:20 | -9.64280 | -63.62548 | 38986 ft | 459 kts | 49° |
| 2026-04-24 13:20 | -9.60024 | -63.57757 | 38978 ft | 459 kts | 49° |
| 2026-04-24 13:21 | -9.55728 | -63.52922 | 38980 ft | 458 kts | 49° |
| 2026-04-24 13:21 | -9.51477 | -63.48140 | 38984 ft | 458 kts | 49° |
| 2026-04-24 13:22 | -9.47208 | -63.43339 | 38982 ft | 458 kts | 49° |
| 2026-04-24 13:22 | -9.42955 | -63.38558 | 38979 ft | 458 kts | 49° |
| 2026-04-24 13:23 | -9.38396 | -63.34033 | 38983 ft | 460 kts | 39° |
| 2026-04-24 13:23 | -9.33377 | -63.29998 | 38977 ft | 460 kts | 39° |
| 2026-04-24 13:24 | -9.28369 | -63.25966 | 38982 ft | 460 kts | 39° |
| 2026-04-24 13:24 | -9.23336 | -63.21912 | 38978 ft | 459 kts | 39° |
| 2026-04-24 13:25 | -9.18336 | -63.17886 | 38980 ft | 459 kts | 39° |
| 2026-04-24 13:25 | -9.13339 | -63.13863 | 38981 ft | 459 kts | 39° |
| 2026-04-24 13:26 | -9.08347 | -63.09845 | 38979 ft | 459 kts | 39° |
| 2026-04-24 13:26 | -9.03354 | -63.05827 | 38980 ft | 460 kts | 39° |
| 2026-04-24 13:27 | -8.98329 | -63.01785 | 38978 ft | 460 kts | 39° |
| 2026-04-24 13:27 | -8.93332 | -62.97766 | 38979 ft | 459 kts | 39° |
| 2026-04-24 13:28 | -8.88297 | -62.93719 | 38980 ft | 459 kts | 39° |
| 2026-04-24 13:28 | -8.83308 | -62.89709 | 38981 ft | 458 kts | 39° |
| 2026-04-24 13:29 | -8.78310 | -62.85693 | 38979 ft | 458 kts | 39° |
| 2026-04-24 13:29 | -8.73325 | -62.81689 | 38981 ft | 459 kts | 39° |
| 2026-04-24 13:30 | -8.68309 | -62.77661 | 38980 ft | 458 kts | 39° |
| 2026-04-24 13:30 | -8.63332 | -62.73667 | 38980 ft | 458 kts | 39° |
| 2026-04-24 13:31 | -8.58330 | -62.69654 | 38982 ft | 457 kts | 39° |
| 2026-04-24 13:31 | -8.53346 | -62.65656 | 38982 ft | 457 kts | 40° |
| 2026-04-24 13:32 | -8.48376 | -62.61670 | 38978 ft | 457 kts | 40° |
| 2026-04-24 13:32 | -8.43371 | -62.57659 | 38979 ft | 457 kts | 40° |
| 2026-04-24 13:33 | -8.38382 | -62.53661 | 38981 ft | 457 kts | 40° |
| 2026-04-24 13:33 | -8.33416 | -62.49684 | 38982 ft | 457 kts | 40° |
| 2026-04-24 13:34 | -8.28423 | -62.45686 | 38981 ft | 457 kts | 40° |
| 2026-04-24 13:34 | -8.23428 | -62.41687 | 38985 ft | 457 kts | 40° |
| 2026-04-24 13:35 | -8.18441 | -62.37697 | 38983 ft | 457 kts | 40° |
| 2026-04-24 13:35 | -8.13444 | -62.33700 | 38985 ft | 456 kts | 40° |
| 2026-04-24 13:36 | -8.08479 | -62.29730 | 38983 ft | 457 kts | 40° |
| 2026-04-24 13:36 | -8.03485 | -62.25737 | 38981 ft | 457 kts | 40° |
| 2026-04-24 13:37 | -7.98510 | -62.21762 | 38980 ft | 457 kts | 40° |
| 2026-04-24 13:37 | -7.93506 | -62.17765 | 38981 ft | 458 kts | 40° |
| 2026-04-24 13:38 | -7.88521 | -62.13784 | 38981 ft | 458 kts | 40° |
| 2026-04-24 13:38 | -7.83501 | -62.09776 | 38980 ft | 457 kts | 40° |
| 2026-04-24 13:39 | -7.78507 | -62.05790 | 38980 ft | 457 kts | 40° |
| 2026-04-24 13:39 | -7.73513 | -62.01806 | 38978 ft | 457 kts | 40° |
| 2026-04-24 13:40 | -7.68543 | -61.97842 | 38981 ft | 458 kts | 40° |
| 2026-04-24 13:40 | -7.63525 | -61.93841 | 38981 ft | 459 kts | 40° |
| 2026-04-24 13:41 | -7.58491 | -61.89829 | 38981 ft | 459 kts | 40° |
| 2026-04-24 13:41 | -7.53488 | -61.85842 | 38977 ft | 459 kts | 40° |
| 2026-04-24 13:42 | -7.48500 | -61.81869 | 38975 ft | 458 kts | 40° |
| 2026-04-24 13:42 | -7.43486 | -61.77876 | 38974 ft | 458 kts | 40° |
| 2026-04-24 13:43 | -7.38494 | -61.73903 | 38977 ft | 459 kts | 40° |
| 2026-04-24 13:43 | -7.33453 | -61.69891 | 38982 ft | 459 kts | 40° |
| 2026-04-24 13:44 | -7.28443 | -61.65905 | 38983 ft | 459 kts | 40° |
| 2026-04-24 13:44 | -7.23441 | -61.61927 | 38977 ft | 460 kts | 40° |
| 2026-04-24 13:45 | -7.18416 | -61.57932 | 38974 ft | 459 kts | 40° |
| 2026-04-24 13:45 | -7.13383 | -61.53931 | 38978 ft | 459 kts | 40° |
| 2026-04-24 13:46 | -7.08462 | -61.50022 | 38977 ft | 459 kts | 40° |
| 2026-04-24 13:46 | -7.03452 | -61.46042 | 38982 ft | 459 kts | 40° |
| 2026-04-24 13:47 | -6.98426 | -61.42051 | 38983 ft | 459 kts | 40° |
| 2026-04-24 13:47 | -6.93408 | -61.38067 | 38978 ft | 459 kts | 41° |
| 2026-04-24 13:48 | -6.88380 | -61.34076 | 38981 ft | 459 kts | 40° |
| 2026-04-24 13:48 | -6.83358 | -61.30091 | 38976 ft | 459 kts | 40° |
| 2026-04-24 13:49 | -6.78314 | -61.26090 | 38977 ft | 459 kts | 40° |
| 2026-04-24 13:49 | -6.73288 | -61.22105 | 38977 ft | 460 kts | 40° |
| 2026-04-24 13:50 | -6.68264 | -61.18123 | 38976 ft | 460 kts | 40° |
| 2026-04-24 13:50 | -6.63237 | -61.14138 | 38979 ft | 460 kts | 40° |
| 2026-04-24 13:51 | -6.58205 | -61.10152 | 38978 ft | 460 kts | 40° |
| 2026-04-24 13:51 | -6.53181 | -61.06173 | 38981 ft | 460 kts | 40° |
| 2026-04-24 13:52 | -6.48139 | -61.02180 | 38981 ft | 460 kts | 40° |
| 2026-04-24 13:52 | -6.43093 | -60.98186 | 38978 ft | 461 kts | 40° |
| 2026-04-24 13:53 | -6.38080 | -60.94218 | 38978 ft | 461 kts | 40° |
| 2026-04-24 13:53 | -6.33039 | -60.90230 | 38982 ft | 461 kts | 40° |
| 2026-04-24 13:54 | -6.28014 | -60.86196 | 38980 ft | 462 kts | 41° |
| 2026-04-24 13:54 | -6.23032 | -60.82120 | 38982 ft | 462 kts | 41° |
| 2026-04-24 13:55 | -6.18050 | -60.78048 | 38982 ft | 461 kts | 41° |
| 2026-04-24 13:55 | -6.13061 | -60.73973 | 38980 ft | 461 kts | 41° |
| 2026-04-24 13:56 | -6.08088 | -60.69911 | 38974 ft | 461 kts | 41° |
| 2026-04-24 13:56 | -6.03101 | -60.65840 | 38979 ft | 461 kts | 41° |
| 2026-04-24 13:57 | -5.98114 | -60.61771 | 38977 ft | 461 kts | 41° |
| 2026-04-24 13:57 | -5.93155 | -60.57726 | 38975 ft | 461 kts | 41° |
| 2026-04-24 13:58 | -5.88164 | -60.53656 | 38978 ft | 460 kts | 41° |
| 2026-04-24 13:58 | -5.83184 | -60.49596 | 38980 ft | 460 kts | 41° |
| 2026-04-24 13:59 | -5.78215 | -60.45546 | 38980 ft | 460 kts | 41° |
| 2026-04-24 13:59 | -5.73230 | -60.41485 | 38978 ft | 459 kts | 41° |
| 2026-04-24 14:00 | -5.68281 | -60.37454 | 38976 ft | 459 kts | 41° |
| 2026-04-24 14:00 | -5.63315 | -60.33409 | 38975 ft | 459 kts | 41° |
| 2026-04-24 14:01 | -5.58369 | -60.29383 | 38976 ft | 458 kts | 41° |
| 2026-04-24 14:01 | -5.53415 | -60.25350 | 38976 ft | 457 kts | 42° |
| 2026-04-24 14:02 | -5.48461 | -60.21319 | 38976 ft | 456 kts | 42° |
| 2026-04-24 14:02 | -5.43516 | -60.17296 | 38978 ft | 456 kts | 42° |
| 2026-04-24 14:03 | -5.38607 | -60.13304 | 38976 ft | 456 kts | 42° |
| 2026-04-24 14:03 | -5.33657 | -60.09278 | 38978 ft | 456 kts | 42° |
| 2026-04-24 14:04 | -5.28744 | -60.05284 | 38974 ft | 456 kts | 42° |
| 2026-04-24 14:04 | -5.23798 | -60.01264 | 38972 ft | 455 kts | 42° |
| 2026-04-24 14:05 | -5.18891 | -59.97276 | 38977 ft | 454 kts | 42° |
| 2026-04-24 14:05 | -5.13963 | -59.93273 | 38975 ft | 453 kts | 42° |
| 2026-04-24 14:06 | -5.09077 | -59.89304 | 38977 ft | 453 kts | 42° |
| 2026-04-24 14:06 | -5.04180 | -59.85327 | 38975 ft | 453 kts | 43° |
| 2026-04-24 14:07 | -4.99274 | -59.81344 | 38981 ft | 452 kts | 43° |
| 2026-04-24 14:07 | -4.94371 | -59.77364 | 38978 ft | 452 kts | 42° |
| 2026-04-24 14:08 | -4.89502 | -59.73413 | 38973 ft | 452 kts | 42° |
| 2026-04-24 14:08 | -4.84571 | -59.69411 | 38972 ft | 452 kts | 42° |
| 2026-04-24 14:09 | -4.79702 | -59.65461 | 38968 ft | 452 kts | 42° |
| 2026-04-24 14:09 | -4.74796 | -59.61482 | 38975 ft | 452 kts | 42° |
| 2026-04-24 14:10 | -4.69891 | -59.57504 | 38973 ft | 452 kts | 42° |
| 2026-04-24 14:10 | -4.65019 | -59.53554 | 38968 ft | 451 kts | 42° |
| 2026-04-24 14:11 | -4.60152 | -59.49608 | 38965 ft | 451 kts | 42° |
| 2026-04-24 14:12 | -4.52821 | -59.43668 | 38970 ft | 451 kts | 42° |
| 2026-04-24 14:12 | -4.47950 | -59.39720 | 38969 ft | 451 kts | 41° |
| 2026-04-24 14:13 | -4.43050 | -59.35751 | 38970 ft | 451 kts | 42° |
| 2026-04-24 14:13 | -4.38157 | -59.31787 | 38969 ft | 451 kts | 41° |
| 2026-04-24 14:14 | -4.33251 | -59.27815 | 38970 ft | 450 kts | 41° |
| 2026-04-24 14:14 | -4.25946 | -59.21900 | 38970 ft | 450 kts | 41° |
| 2026-04-24 14:15 | -4.21063 | -59.17947 | 38974 ft | 450 kts | 41° |
| 2026-04-24 14:15 | -4.16208 | -59.14017 | 38985 ft | 450 kts | 41° |
| 2026-04-24 14:16 | -4.11345 | -59.10082 | 38993 ft | 450 kts | 41° |
| 2026-04-24 14:17 | -4.04046 | -59.04177 | 38991 ft | 449 kts | 41° |
| 2026-04-24 14:17 | -3.96468 | -58.98562 | 38995 ft | 451 kts | 38° |
| 2026-04-24 14:18 | -3.91377 | -58.94911 | 38992 ft | 450 kts | 38° |
| 2026-04-24 14:18 | -3.86232 | -58.91223 | 38995 ft | 450 kts | 38° |
| 2026-04-24 14:19 | -3.81145 | -58.87575 | 38994 ft | 449 kts | 38° |
| 2026-04-24 14:19 | -3.76066 | -58.83933 | 38990 ft | 448 kts | 38° |
| 2026-04-24 14:20 | -3.71003 | -58.80302 | 38993 ft | 448 kts | 38° |
| 2026-04-24 14:20 | -3.65943 | -58.76674 | 38993 ft | 447 kts | 38° |
| 2026-04-24 14:21 | -3.60833 | -58.73009 | 38993 ft | 447 kts | 39° |
| 2026-04-24 14:21 | -3.55779 | -58.69386 | 38991 ft | 446 kts | 38° |
| 2026-04-24 14:22 | -3.50733 | -58.65769 | 38993 ft | 446 kts | 38° |
| 2026-04-24 14:23 | -3.43174 | -58.60350 | 38993 ft | 445 kts | 39° |
| 2026-04-24 14:23 | -3.38122 | -58.56728 | 38992 ft | 446 kts | 39° |
| 2026-04-24 14:24 | -3.33092 | -58.53124 | 38992 ft | 446 kts | 39° |
| 2026-04-24 14:24 | -3.28044 | -58.49506 | 38993 ft | 445 kts | 39° |
| 2026-04-24 14:25 | -3.22984 | -58.45880 | 38991 ft | 445 kts | 39° |
| 2026-04-24 14:25 | -3.17941 | -58.42267 | 38991 ft | 445 kts | 39° |
| 2026-04-24 14:26 | -3.12932 | -58.38679 | 38991 ft | 445 kts | 39° |
| 2026-04-24 14:26 | -3.07823 | -58.35166 | 38991 ft | 446 kts | 35° |
| 2026-04-24 14:27 | -3.02476 | -58.31921 | 38992 ft | 447 kts | 35° |
| 2026-04-24 14:27 | -2.97157 | -58.28688 | 38988 ft | 446 kts | 34° |
| 2026-04-24 14:28 | -2.91858 | -58.25466 | 38981 ft | 446 kts | 34° |
| 2026-04-24 14:28 | -2.86532 | -58.22228 | 38974 ft | 445 kts | 34° |
| 2026-04-24 14:29 | -2.81230 | -58.19002 | 38980 ft | 445 kts | 34° |
| 2026-04-24 14:29 | -2.75964 | -58.15798 | 38980 ft | 445 kts | 35° |
| 2026-04-24 14:30 | -2.71541 | -58.13107 | 38979 ft | 445 kts | 34° |
| 2026-04-24 14:30 | -2.65340 | -58.09335 | 38976 ft | 445 kts | 34° |
| 2026-04-24 14:31 | -2.60072 | -58.06129 | 38978 ft | 444 kts | 35° |
| 2026-04-24 14:31 | -2.54762 | -58.02898 | 38981 ft | 445 kts | 34° |
| 2026-04-24 14:32 | -2.49466 | -57.99676 | 38981 ft | 445 kts | 34° |
| 2026-04-24 14:32 | -2.44181 | -57.96460 | 38986 ft | 445 kts | 34° |
| 2026-04-24 14:33 | -2.38896 | -57.93245 | 38988 ft | 445 kts | 34° |
| 2026-04-24 14:33 | -2.33606 | -57.90027 | 38989 ft | 444 kts | 34° |
| 2026-04-24 14:34 | -2.28326 | -57.86815 | 38991 ft | 444 kts | 34° |
| 2026-04-24 14:34 | -2.23030 | -57.83593 | 38995 ft | 444 kts | 34° |
| 2026-04-24 14:35 | -2.17747 | -57.80380 | 38998 ft | 445 kts | 34° |
| 2026-04-24 14:35 | -2.12450 | -57.77158 | 38997 ft | 445 kts | 34° |
| 2026-04-24 14:36 | -2.07124 | -57.73919 | 38999 ft | 445 kts | 34° |
| 2026-04-24 14:36 | -2.01832 | -57.70701 | 38999 ft | 445 kts | 34° |
| 2026-04-24 14:37 | -1.96511 | -57.67465 | 38998 ft | 445 kts | 34° |
| 2026-04-24 14:37 | -1.91215 | -57.64244 | 38998 ft | 445 kts | 34° |
| 2026-04-24 14:38 | -1.85886 | -57.61004 | 38997 ft | 446 kts | 34° |
| 2026-04-24 14:38 | -1.80596 | -57.57787 | 38997 ft | 445 kts | 34° |
| 2026-04-24 14:39 | -1.75279 | -57.54554 | 38996 ft | 445 kts | 34° |
| 2026-04-24 14:39 | -1.69978 | -57.51331 | 38999 ft | 445 kts | 34° |
| 2026-04-24 14:40 | -1.64685 | -57.48114 | 39006 ft | 444 kts | 34° |
| 2026-04-24 14:40 | -1.59389 | -57.44894 | 39010 ft | 445 kts | 35° |
| 2026-04-24 14:41 | -1.54102 | -57.41680 | 39008 ft | 445 kts | 35° |
| 2026-04-24 14:41 | -1.48781 | -57.38446 | 39010 ft | 445 kts | 35° |
| 2026-04-24 14:42 | -1.43484 | -57.35226 | 39009 ft | 444 kts | 35° |
| 2026-04-24 14:42 | -1.38193 | -57.32010 | 39007 ft | 445 kts | 35° |
| 2026-04-24 14:43 | -1.32886 | -57.28785 | 39009 ft | 445 kts | 35° |
| 2026-04-24 14:43 | -1.27618 | -57.25583 | 39009 ft | 444 kts | 35° |
| 2026-04-24 14:44 | -1.22314 | -57.22360 | 39009 ft | 444 kts | 35° |
| 2026-04-24 14:44 | -1.17021 | -57.19143 | 39015 ft | 444 kts | 35° |
| 2026-04-24 14:45 | -1.11731 | -57.15928 | 39018 ft | 445 kts | 35° |
| 2026-04-24 14:45 | -1.06445 | -57.12716 | 39019 ft | 445 kts | 35° |
| 2026-04-24 14:46 | -1.01142 | -57.09494 | 39027 ft | 443 kts | 35° |
| 2026-04-24 14:46 | -0.95887 | -57.06302 | 39027 ft | 442 kts | 35° |
| 2026-04-24 14:47 | -0.90622 | -57.03102 | 39029 ft | 442 kts | 35° |
| 2026-04-24 14:47 | -0.85323 | -56.99882 | 39028 ft | 443 kts | 34° |
| 2026-04-24 14:48 | -0.80033 | -56.96668 | 39028 ft | 444 kts | 34° |
| 2026-04-24 14:48 | -0.74775 | -56.93474 | 39027 ft | 444 kts | 34° |
| 2026-04-24 14:49 | -0.69461 | -56.90245 | 39017 ft | 445 kts | 34° |
| 2026-04-24 14:49 | -0.64185 | -56.87040 | 39011 ft | 445 kts | 34° |
| 2026-04-24 14:50 | -0.58874 | -56.83814 | 39015 ft | 445 kts | 34° |
| 2026-04-24 14:50 | -0.53560 | -56.80586 | 39015 ft | 444 kts | 34° |
| 2026-04-24 14:51 | -0.48287 | -56.77383 | 39014 ft | 445 kts | 34° |
| 2026-04-24 14:51 | -0.42989 | -56.74165 | 39014 ft | 446 kts | 34° |
| 2026-04-24 14:52 | -0.37680 | -56.70940 | 39018 ft | 447 kts | 34° |
| 2026-04-24 14:52 | -0.32329 | -56.67690 | 39016 ft | 448 kts | 34° |
| 2026-04-24 14:53 | -0.27021 | -56.64466 | 39019 ft | 448 kts | 34° |
| 2026-04-24 14:53 | -0.21671 | -56.61217 | 39023 ft | 448 kts | 34° |
| 2026-04-24 14:54 | -0.16321 | -56.57968 | 39019 ft | 448 kts | 34° |
| 2026-04-24 14:54 | -0.11008 | -56.54740 | 39020 ft | 450 kts | 34° |
| 2026-04-24 14:55 | -0.06532 | -56.52022 | 39025 ft | 451 kts | 34° |
| 2026-04-24 14:55 | -0.00241 | -56.48202 | 39023 ft | 451 kts | 34° |
| 2026-04-24 14:56 | 0.05116 | -56.44948 | 39026 ft | 451 kts | 34° |
| 2026-04-24 14:56 | 0.10488 | -56.41686 | 39026 ft | 452 kts | 34° |
| 2026-04-24 14:57 | 0.15891 | -56.38405 | 39029 ft | 453 kts | 34° |
| 2026-04-24 14:57 | 0.21137 | -56.35218 | 39021 ft | 454 kts | 34° |
| 2026-04-24 14:58 | 0.26536 | -56.31939 | 39015 ft | 454 kts | 34° |
| 2026-04-24 14:58 | 0.31963 | -56.28644 | 39013 ft | 454 kts | 34° |
| 2026-04-24 14:59 | 0.37343 | -56.25377 | 39011 ft | 454 kts | 34° |
| 2026-04-24 14:59 | 0.42756 | -56.22089 | 39011 ft | 455 kts | 34° |
| 2026-04-24 15:00 | 0.48193 | -56.18787 | 39012 ft | 456 kts | 34° |
| 2026-04-24 15:00 | 0.53633 | -56.15483 | 39014 ft | 457 kts | 34° |
| 2026-04-24 15:01 | 0.59060 | -56.12188 | 39014 ft | 457 kts | 34° |
| 2026-04-24 15:01 | 0.64483 | -56.08895 | 39016 ft | 458 kts | 34° |
| 2026-04-24 15:02 | 0.69965 | -56.05565 | 39015 ft | 459 kts | 34° |
| 2026-04-24 15:02 | 0.75433 | -56.02245 | 39019 ft | 459 kts | 34° |
| 2026-04-24 15:03 | 0.80891 | -55.98931 | 39033 ft | 459 kts | 34° |
| 2026-04-24 15:03 | 0.86346 | -55.95618 | 39040 ft | 460 kts | 34° |
| 2026-04-24 15:04 | 0.91840 | -55.92281 | 39042 ft | 461 kts | 34° |
| 2026-04-24 15:04 | 0.97322 | -55.88952 | 39043 ft | 462 kts | 34° |
| 2026-04-24 15:05 | 1.02819 | -55.85613 | 39040 ft | 462 kts | 34° |
| 2026-04-24 15:05 | 1.08310 | -55.82278 | 39041 ft | 462 kts | 34° |
| 2026-04-24 15:06 | 1.13841 | -55.78919 | 39041 ft | 462 kts | 34° |
| 2026-04-24 15:06 | 1.19352 | -55.75573 | 39039 ft | 462 kts | 34° |
| 2026-04-24 15:07 | 1.24830 | -55.72245 | 39034 ft | 462 kts | 34° |
| 2026-04-24 15:07 | 1.30344 | -55.68896 | 39032 ft | 461 kts | 34° |
| 2026-04-24 15:08 | 1.35830 | -55.65564 | 39032 ft | 461 kts | 34° |
| 2026-04-24 15:08 | 1.41302 | -55.62240 | 39031 ft | 460 kts | 34° |
| 2026-04-24 15:09 | 1.46775 | -55.58915 | 39021 ft | 460 kts | 34° |
| 2026-04-24 15:09 | 1.52261 | -55.55582 | 39020 ft | 461 kts | 35° |
| 2026-04-24 15:10 | 1.57751 | -55.52247 | 39019 ft | 462 kts | 35° |
| 2026-04-24 15:10 | 1.63246 | -55.48909 | 39016 ft | 462 kts | 34° |
| 2026-04-24 15:11 | 1.68758 | -55.45559 | 39018 ft | 461 kts | 35° |
| 2026-04-24 15:11 | 1.74220 | -55.42241 | 39018 ft | 461 kts | 35° |
| 2026-04-24 15:12 | 1.79736 | -55.38889 | 39021 ft | 461 kts | 35° |
| 2026-04-24 15:12 | 1.87928 | -55.33911 | 39024 ft | 460 kts | 35° |
| 2026-04-24 15:13 | 1.93412 | -55.30579 | 39021 ft | 460 kts | 35° |
| 2026-04-24 15:13 | 1.98912 | -55.27236 | 39020 ft | 459 kts | 35° |
| 2026-04-24 15:14 | 2.04360 | -55.23925 | 39022 ft | 459 kts | 34° |
| 2026-04-24 15:14 | 2.09840 | -55.20594 | 39024 ft | 460 kts | 34° |
| 2026-04-24 15:15 | 2.15022 | -55.16924 | 39028 ft | 455 kts | 45° |
| 2026-04-24 15:15 | 2.19142 | -55.12164 | 39027 ft | 450 kts | 58° |
| 2026-04-24 15:16 | 2.22549 | -55.06927 | 39027 ft | 450 kts | 59° |
| 2026-04-24 15:16 | 2.25985 | -55.01637 | 39025 ft | 452 kts | 59° |
| 2026-04-24 15:17 | 2.29397 | -54.96389 | 39026 ft | 452 kts | 60° |
| 2026-04-24 15:17 | 2.32826 | -54.91118 | 39028 ft | 452 kts | 60° |
| 2026-04-24 15:18 | 2.36248 | -54.85859 | 39027 ft | 453 kts | 60° |
| 2026-04-24 15:18 | 2.39699 | -54.80558 | 39026 ft | 453 kts | 60° |
| 2026-04-24 15:19 | 2.43135 | -54.75279 | 39028 ft | 454 kts | 60° |
| 2026-04-24 15:19 | 2.46567 | -54.70017 | 39032 ft | 455 kts | 59° |
| 2026-04-24 15:20 | 2.50559 | -54.65057 | 39030 ft | 458 kts | 52° |
| 2026-04-24 15:20 | 2.54695 | -54.60197 | 39030 ft | 458 kts | 52° |
| 2026-04-24 15:21 | 2.58822 | -54.55341 | 39030 ft | 458 kts | 52° |
| 2026-04-24 15:21 | 2.62923 | -54.50512 | 39028 ft | 458 kts | 52° |
| 2026-04-24 15:22 | 2.67084 | -54.45610 | 39023 ft | 458 kts | 52° |
| 2026-04-24 15:23 | 2.73278 | -54.38311 | 39014 ft | 460 kts | 53° |
| 2026-04-24 15:23 | 2.79496 | -54.30980 | 39008 ft | 460 kts | 52° |
| 2026-04-24 15:25 | 2.89175 | -54.19564 | 38984 ft | 461 kts | 52° |
| 2026-04-24 15:25 | 2.94281 | -54.14085 | 38420 ft | 460 kts | 46° |
| 2026-04-24 15:26 | 3.01192 | -54.07532 | 37681 ft | 454 kts | 46° |
| 2026-04-24 15:27 | 3.08078 | -54.00988 | 36941 ft | 454 kts | 46° |
| 2026-04-24 15:27 | 3.14972 | -53.94430 | 36197 ft | 455 kts | 46° |
| 2026-04-24 15:28 | 3.24202 | -53.85643 | 35201 ft | 457 kts | 46° |
| 2026-04-24 15:29 | 3.28809 | -53.81256 | 34707 ft | 458 kts | 46° |
| 2026-04-24 15:30 | 3.35759 | -53.74633 | 33969 ft | 460 kts | 46° |
| 2026-04-24 15:31 | 3.45120 | -53.65711 | 32985 ft | 461 kts | 46° |
| 2026-04-24 15:32 | 3.54367 | -53.56895 | 31823 ft | 458 kts | 46° |
| 2026-04-24 15:33 | 3.63400 | -53.48283 | 29502 ft | 435 kts | 46° |
| 2026-04-24 15:33 | 3.69846 | -53.42135 | 27801 ft | 417 kts | 46° |
| 2026-04-24 15:34 | 3.73981 | -53.38190 | 26703 ft | 407 kts | 46° |
| 2026-04-24 15:35 | 3.80006 | -53.32441 | 25115 ft | 391 kts | 46° |
| 2026-04-24 15:35 | 3.83911 | -53.28714 | 24086 ft | 382 kts | 46° |
| 2026-04-24 15:35 | 3.85819 | -53.26893 | 23583 ft | 378 kts | 46° |
| 2026-04-24 15:36 | 3.87716 | -53.25082 | 23087 ft | 378 kts | 46° |
| 2026-04-24 15:36 | 3.91508 | -53.21460 | 22091 ft | 375 kts | 46° |
| 2026-04-24 15:36 | 3.93374 | -53.19678 | 21591 ft | 373 kts | 47° |
| 2026-04-24 15:37 | 3.95247 | -53.17889 | 21095 ft | 369 kts | 47° |
| 2026-04-24 15:37 | 3.97103 | -53.16117 | 20604 ft | 367 kts | 46° |
| 2026-04-24 15:37 | 3.98934 | -53.14368 | 20121 ft | 365 kts | 47° |
| 2026-04-24 15:37 | 4.00762 | -53.12621 | 19639 ft | 362 kts | 46° |
| 2026-04-24 15:38 | 4.02590 | -53.10875 | 19153 ft | 360 kts | 46° |
| 2026-04-24 15:38 | 4.04399 | -53.09146 | 18680 ft | 358 kts | 46° |
| 2026-04-24 15:38 | 4.06175 | -53.07450 | 18206 ft | 355 kts | 46° |
| 2026-04-24 15:38 | 4.07961 | -53.05744 | 17736 ft | 353 kts | 46° |
| 2026-04-24 15:39 | 4.09731 | -53.04052 | 17269 ft | 351 kts | 46° |
| 2026-04-24 15:39 | 4.11492 | -53.02369 | 16802 ft | 348 kts | 46° |
| 2026-04-24 15:39 | 4.13242 | -53.00697 | 16345 ft | 346 kts | 46° |
| 2026-04-24 15:39 | 4.14976 | -52.99039 | 15881 ft | 343 kts | 45° |
| 2026-04-24 15:40 | 4.16688 | -52.97402 | 15443 ft | 340 kts | 45° |
| 2026-04-24 15:40 | 4.18401 | -52.95764 | 14977 ft | 337 kts | 46° |
| 2026-04-24 15:40 | 4.20080 | -52.94160 | 14530 ft | 334 kts | 46° |
| 2026-04-24 15:40 | 4.21772 | -52.92544 | 14084 ft | 331 kts | 45° |
| 2026-04-24 15:41 | 4.23421 | -52.90966 | 13643 ft | 329 kts | 46° |
| 2026-04-24 15:41 | 4.25060 | -52.89400 | 13225 ft | 323 kts | 46° |
| 2026-04-24 15:41 | 4.26689 | -52.87847 | 12794 ft | 317 kts | 46° |
| 2026-04-24 15:41 | 4.28258 | -52.86346 | 12373 ft | 311 kts | 45° |
| 2026-04-24 15:42 | 4.29826 | -52.84847 | 11959 ft | 306 kts | 45° |
| 2026-04-24 15:42 | 4.31342 | -52.83395 | 11546 ft | 301 kts | 45° |
| 2026-04-24 15:42 | 4.32917 | -52.81998 | 11161 ft | 298 kts | 39° |
| 2026-04-24 15:42 | 4.34623 | -52.80847 | 10794 ft | 293 kts | 35° |
| 2026-04-24 15:43 | 4.36335 | -52.79719 | 10382 ft | 287 kts | 35° |
| 2026-04-24 15:43 | 4.37976 | -52.78635 | 10018 ft | 274 kts | 36° |
| 2026-04-24 15:43 | 4.39531 | -52.77608 | 9681 ft | 264 kts | 36° |
| 2026-04-24 15:43 | 4.41033 | -52.76614 | 9335 ft | 255 kts | 36° |
| 2026-04-24 15:44 | 4.42497 | -52.75645 | 9006 ft | 246 kts | 36° |
| 2026-04-24 15:44 | 4.43893 | -52.74721 | 8725 ft | 236 kts | 36° |
| 2026-04-24 15:44 | 4.45233 | -52.73833 | 8394 ft | 229 kts | 36° |
| 2026-04-24 15:44 | 4.46573 | -52.72943 | 8082 ft | 228 kts | 36° |
| 2026-04-24 15:45 | 4.47895 | -52.72064 | 7769 ft | 228 kts | 36° |
| 2026-04-24 15:45 | 4.49218 | -52.71185 | 7468 ft | 227 kts | 36° |
| 2026-04-24 15:45 | 4.50529 | -52.70314 | 7163 ft | 225 kts | 35° |
| 2026-04-24 15:45 | 4.51832 | -52.69448 | 6870 ft | 223 kts | 35° |
| 2026-04-24 15:46 | 4.53123 | -52.68589 | 6574 ft | 222 kts | 35° |
| 2026-04-24 15:46 | 4.54406 | -52.67736 | 6273 ft | 220 kts | 35° |
| 2026-04-24 15:46 | 4.55680 | -52.66888 | 5995 ft | 218 kts | 35° |
| 2026-04-24 15:46 | 4.56957 | -52.66038 | 5696 ft | 218 kts | 35° |
| 2026-04-24 15:47 | 4.58219 | -52.65198 | 5413 ft | 217 kts | 35° |
| 2026-04-24 15:47 | 4.59479 | -52.64360 | 5126 ft | 217 kts | 35° |
| 2026-04-24 15:47 | 4.60711 | -52.63540 | 4837 ft | 209 kts | 35° |
| 2026-04-24 15:47 | 4.61897 | -52.62751 | 4549 ft | 197 kts | 35° |
| 2026-04-24 15:48 | 4.63023 | -52.62003 | 4301 ft | 190 kts | 35° |
| 2026-04-24 15:48 | 4.64118 | -52.61273 | 4042 ft | 190 kts | 35° |
| 2026-04-24 15:48 | 4.65215 | -52.60542 | 3796 ft | 189 kts | 35° |
| 2026-04-24 15:48 | 4.66320 | -52.59806 | 3540 ft | 189 kts | 35° |
| 2026-04-24 15:49 | 4.67400 | -52.59087 | 3304 ft | 181 kts | 35° |
| 2026-04-24 15:49 | 4.68421 | -52.58408 | 3071 ft | 168 kts | 35° |
| 2026-04-24 15:49 | 4.69395 | -52.57760 | 2842 ft | 167 kts | 35° |
| 2026-04-24 15:49 | 4.70354 | -52.57120 | 2606 ft | 166 kts | 36° |
| 2026-04-24 15:50 | 4.71317 | -52.56480 | 2396 ft | 166 kts | 36° |
| 2026-04-24 15:50 | 4.72282 | -52.55836 | 2178 ft | 166 kts | 35° |
| 2026-04-24 15:50 | 4.73251 | -52.55190 | 1975 ft | 165 kts | 35° |
| 2026-04-24 15:50 | 4.74087 | -52.54429 | 1937 ft | 165 kts | 62° |
| 2026-04-24 15:51 | 4.74157 | -52.53298 | 1944 ft | 168 kts | 103° |
| 2026-04-24 15:51 | 4.73512 | -52.52298 | 1959 ft | 176 kts | 135° |
| 2026-04-24 15:51 | 4.72363 | -52.51849 | 1960 ft | 184 kts | 173° |
| 2026-04-24 15:51 | 4.71130 | -52.52256 | 1959 ft | 190 kts | 219° |
| 2026-04-24 15:52 | 4.70435 | -52.53372 | 1968 ft | 189 kts | 247° |
| 2026-04-24 15:52 | 4.69909 | -52.54586 | 1966 ft | 189 kts | 246° |
| 2026-04-24 15:52 | 4.69371 | -52.55791 | 1963 ft | 189 kts | 246° |
| 2026-04-24 15:52 | 4.68836 | -52.56981 | 1956 ft | 189 kts | 246° |
| 2026-04-24 15:53 | 4.68286 | -52.58198 | 1950 ft | 189 kts | 246° |
| 2026-04-24 15:53 | 4.67896 | -52.59439 | 1942 ft | 188 kts | 270° |
| 2026-04-24 15:53 | 4.68344 | -52.60618 | 1945 ft | 181 kts | 316° |
| 2026-04-24 15:53 | 4.69432 | -52.61157 | 1957 ft | 172 kts | 359° |
| 2026-04-24 15:54 | 4.70508 | -52.60804 | 1959 ft | 166 kts | 42° |
| 2026-04-24 15:54 | 4.71124 | -52.59825 | 1969 ft | 165 kts | 65° |
| 2026-04-24 15:54 | 4.71596 | -52.58770 | 1967 ft | 166 kts | 65° |
| 2026-04-24 15:54 | 4.72075 | -52.57719 | 1956 ft | 165 kts | 65° |
| 2026-04-24 15:55 | 4.72551 | -52.56678 | 1947 ft | 165 kts | 65° |
| 2026-04-24 15:55 | 4.73019 | -52.55653 | 1936 ft | 149 kts | 65° |
| 2026-04-24 15:55 | 4.73412 | -52.54791 | 1963 ft | 129 kts | 65° |
| 2026-04-24 15:55 | 4.73773 | -52.53993 | 1948 ft | 121 kts | 65° |
| 2026-04-24 15:56 | 4.74117 | -52.53241 | 1935 ft | 117 kts | 64° |
| 2026-04-24 15:56 | 4.74455 | -52.52509 | 1938 ft | 115 kts | 65° |
| 2026-04-24 15:56 | 4.74795 | -52.51771 | 1937 ft | 114 kts | 65° |
| 2026-04-24 15:56 | 4.75127 | -52.51049 | 1941 ft | 115 kts | 64° |
| 2026-04-24 15:57 | 4.75460 | -52.50328 | 1947 ft | 114 kts | 65° |
| 2026-04-24 15:57 | 4.75793 | -52.49605 | 1951 ft | 114 kts | 65° |
| 2026-04-24 15:57 | 4.76126 | -52.48882 | 1951 ft | 113 kts | 64° |
| 2026-04-24 15:57 | 4.76456 | -52.48167 | 1949 ft | 114 kts | 65° |
| 2026-04-24 15:58 | 4.76790 | -52.47443 | 1951 ft | 114 kts | 64° |
| 2026-04-24 15:58 | 4.77121 | -52.46724 | 1944 ft | 114 kts | 64° |
| 2026-04-24 15:58 | 4.77465 | -52.45978 | 1773 ft | 115 kts | 65° |
| 2026-04-24 15:58 | 4.77796 | -52.45260 | 1662 ft | 115 kts | 65° |
| 2026-04-24 15:59 | 4.78133 | -52.44530 | 1495 ft | 114 kts | 65° |
| 2026-04-24 15:59 | 4.78465 | -52.43811 | 1359 ft | 115 kts | 66° |
| 2026-04-24 15:59 | 4.78803 | -52.43077 | 1197 ft | 115 kts | 66° |
| 2026-04-24 15:59 | 4.79139 | -52.42345 | 1047 ft | 116 kts | 65° |
| 2026-04-24 16:00 | 4.79482 | -52.41613 | 884 ft | 117 kts | 66° |
| 2026-04-24 16:00 | 4.79819 | -52.40879 | 741 ft | 117 kts | 66° |
| 2026-04-24 16:00 | 4.80167 | -52.40128 | 605 ft | 118 kts | 66° |
| 2026-04-24 16:00 | 4.80512 | -52.39375 | 463 ft | 120 kts | 66° |
| 2026-04-24 16:01 | 4.80861 | -52.38614 | 310 ft | 121 kts | 66° |
| 2026-04-24 16:01 | 4.81208 | -52.37844 | 142 ft | 121 kts | 66° |
| 2026-04-24 16:01 | 4.81549 | -52.37098 | 41 ft | 106 kts | 66° |
| 2026-04-24 16:01 | 4.81819 | -52.36515 | 31 ft | 77 kts | 65° |
| 2026-04-24 16:02 | 4.81921 | -52.36297 | 32 ft | 17 kts | 65° |
| 2026-04-24 16:03 | 4.81936 | -52.36266 | 32 ft | 14 kts | 63° |
| 2026-04-24 16:03 | 4.81999 | -52.36229 | 32 ft | 10 kts | 349° |
| 2026-04-24 16:03 | 4.82078 | -52.36259 | 33 ft | 10 kts | 342° |
| 2026-04-24 16:03 | 4.82131 | -52.36222 | 33 ft | 11 kts | 57° |
| 2026-04-24 16:04 | 4.82157 | -52.36171 | 33 ft | 7 kts | 66° |
| 2026-04-24 16:04 | 4.82179 | -52.36121 | 33 ft | 8 kts | 66° |
| 2026-04-24 16:04 | 4.82202 | -52.36072 | 33 ft | 6 kts | 31° |
| 2026-04-24 16:04 | 4.82251 | -52.36072 | 34 ft | 7 kts | 356° |
| 2026-04-24 16:05 | 4.82334 | -52.36044 | 34 ft | 6 kts | 64° |
| 2026-04-24 16:05 | 4.82349 | -52.36005 | 34 ft | 3 kts | 99° |
| 2026-04-24 16:06 | 4.82330 | -52.35995 | 34 ft | 0 kts | 159° |